Relevés horaires Kleine Brogel (Belgique)


Relevés horaires à Kleine Brogel - Samedi 01 Juin 2019
Heure UTC1 Température [°C] Vent [km/h] Hum. [%] Pres.4 [hPa] Visi. [Km] Nébu. [octa] Préc.5 [mm] Cond.
2m. Res. Ros. Dir.2 Vit. Moy. Raf.3
23:00 16.7 16.7 14.8 NNO 0.0 -- 0.0 89 1018.2(-0.7/3h) 20 -- -- --
22:00 17.3 17.3 15.3 NNO 1.9 -- 0.0 88 1018.6(-0.4/3h) 20 -- -- --
21:00 18.7 18.7 15.0 NNO 0.0 -- 1.9 79 1018.8(-0.4/3h) 20 -- -- --
20:00 20.3 20.3 15.0 NNO 1.9 -- 0.0 72 1018.8(-0.7/3h) 20 -- -- --
19:00 22.9 22.9 13.9 NNO 1.9 -- 1.9 57 1018.8(-1.0/3h) 20 -- -- --
18:00 25.0 25.0 13.0 NNO 1.9 -- 13.0 47 1019.2(-1.1/3h) 20 -- -- --
17:00 26.2 26.2 12.8 NNO 1.9 -- 7.4 43 1019.5(-1.2/3h) 20 -- -- --
16:00 27.0 27.0 12.8 SSO 3.7 -- 9.3 41 1019.7(-1.5/3h) 20 -- -- --
15:00 26.7 26.7 13.9 SO 3.7 -- 13.0 45 1020.3(-1.6/3h) 20 -- -- --
14:00 26.3 26.3 14.2 SO 3.7 -- 9.3 47 1020.7(-1.7/3h) 19 -- -- --
13:00 25.1 25.1 13.4 SO 5.6 -- 13.0 48 1021.3(-1.3/3h) 20 -- -- --
12:00 24.9 24.9 14.5 SSO 3.7 -- 11.1 52 1022.1(-1.0/3h) 20 -- -- --
11:00 23.9 23.9 13.8 O 3.7 -- 11.1 53 1022.7(-0.5/3h) 20 -- -- --
10:00 23.1 23.1 13.8 OSO 5.6 -- 11.1 56 1022.8(-0.3/3h) 20 -- -- --
10:00 23.1 23.1 13.8 OSO 5.6 -- 11.1 56 1022.8(-0.3/3h) 20 -- -- --
09:00 22.3 22.3 13.5 OSO 7.4 -- 11.1 57 1023.1(0.0/3h) 20 -- -- --
08:00 21.0 21.0 13.3 SO 3.7 -- 9.3 61 1023.2(0.2/3h) 19 -- -- --
08:00 21.0 21.0 13.3 SO 3.7 -- 9.3 61 1023.2(0.2/3h) 19 -- -- --
07:00 19.7 19.7 13.3 SO 5.6 -- 9.3 67 1023.2(0.1/3h) 20 -- -- --
07:00 19.7 19.7 13.3 SO 5.6 -- 9.3 67 1023.2(0.1/3h) 20 -- -- --
06:00 16.8 16.8 12.4 SSO 3.7 -- 5.6 75 1023.3(0.2/3h) 20 -- -- --
05:00 14.3 14.3 11.6 NNO 1.9 -- 5.6 84 1023.2(0.0/3h) 20 -- -- --
05:00 14.3 14.3 11.6 NNO 1.9 -- 5.6 84 1023.2(0.0/3h) 20 -- -- --
04:00 12.3 12.3 10.6 NNO 1.9 -- 1.9 89 1023.3(0.0/3h) 20 -- -- --

1 Coordinated Universal Time. Actuellement il est 00:00 locale et 22:00 UTC.

2 Le vent souffle depuis la direction indiquée vers la direction oposée.

3 Les rafales max. sont disponible 40 min après l'heure du relevé.

4 Pour les stations d'altitude (plus de 600m) le géopotentiel du niveau le plus proche de la pression obligatoire est indiqué.

5 Les stations disposant d'un diffuseur peuvent indiquer "trace". Cela signifie que des précipitations ont touchés le sol mais que la quantité est inférieure à 0.1 mm.

Récapitulatif de la journée
Température [°C] Vent [km/h] Ensoleillement4 [h] Precipitations totale5 [mm] Pression [Hpa]
Min1 Max.2 Moy.3 Max. Min Max.
11.6 27.6 0 13.0 0 h 0 min 0 1018.2 1023.3

1 Température minimale relevée entre 18:00 UTC la veille et 18:00 UTC le jour donné.

2 Température maximale relevée entre 06:00 UTC le jour donné et 06:00 UTC le lendemain.

3 Vent moyen de la journée basé sur les relevés horaires.

4 Ensoleillement en heures relevé entre 06:00 UTC la veille et 06:00 UTC le jour donné.

5 Précipitations totales tombées entre 06:00 UTC la jour donné et 06:00 UTC le lendemain.

Graphiques horaires